Главная страница
METAR-TAF:

METAR-TAF

Аэропорты :

Сундсвалль-Härnösand, Швеция

широта: 62-32N, долгота: 017-27E, высота над уровнем моря: 4 м

Текущие метеонаблюдения

Эта сводка был подготовлена 31 минут назад, в 19:20 UTC
Ветер 2 Узел от северно-северо-западный
Температура 0°C
Влажность 100%
Давление 1023 hPa
Видимость 10 км и более
Отдельные облака на высоте 200 фута
Рассеянная облачность на высоте 22000 фута
клочья тумана

METAR: ESNN 151920Z 33002KT 9999 R16/P2000N R34/P2000N BCFG SCT002 BKN220 00/00 Q1023 R16/19//95

Время: 20:51 (19:51 UTC)

Прогноз

Эта сводка был подготовлена 2 часа и 21 минут назад, в 17:30 UTC
Прогноз действительный с 15-го 18 UTC до 15-го 23 UTC
Ветер 3 Узел от северо-западный
Видимость: 9000 м
небольшая облачность на высоте 200 фута
Вероятность 40%
С 15-го 18 UTC до 15-го 23 UTC
Видимость: 2000 м
Рассеянная облачность на высоте 200 фута
клочья тумана

TAF: ESNN 151730Z 1518/1523 31003KT 9000 FEW002 PROB40 1518/1523 2000 BCFG BKN002

Метеонаблюдения и прогнозы для более 4000 аэропортов (сводки METAR и TAF).

Имеющиеся станции представлены на карте желтыми и красными точками.

Чтобы увидеть название станции, наведите на нее мышь.

Затем щелкните, чтобы увидеть метеонаблюдения и метеопрогнозы.

Управление картой: чтобы увеличить масштаб, щелкните зеленые кнопки с черным крестиком; чтобы уменьшить масштаб, щелкните зеленую кнопку с тире; для просмотра соседних карт щелкайте зеленые стрелки.


METAR-TAF: